Clemons, IA (50051)

2:39 PM CST on November 24, 2014 (GMT -0600)
Saint Anthony West | Change Station
CLOSE
Current Station
Personal Weather Station
Location: St. Anthony, IA
Elevation: 1040 ft
Nearby Weather Stations

Elev 1040 ft 42.12 °N, 93.20 °W | Updated 13 minutes ago

Snow
Snow
23.7 °F
Feels Like 9 °F
N
21.2
Wind Variable Wind from West

Today
High -- | Low -- °F
--% Chance of Precip.
Yesterday
High -- | Low -- °F
Precip. -- in
7:13 AM 4:44 PM
Waxing Crescent, 7% visible
Pressure 29.65 in
Visibility 1.0 miles
Clouds Mostly Cloudy 2100 ft
Overcast 2700 ft
Windchill 9 °F
Dew Point 19 °F
Humidity 83%
Rainfall 0.00 in
Snow Depth Not available.
UV 1 out of 12
Pollen .10 out of 12
Air Quality Not available.
Flu Activity Not available.
METAR KMIW 241953Z AUTO 29020G28KT 1SM -SN BR BKN021 OVC027 M05/M07 A2961 RMK AO2 PK WND 29033/1942 SNB36 SLP038 P0000 T10501072

More Conditions Fewer Conditions

Pressure 29.65 in
Visibility 1.0 miles
Clouds Mostly Cloudy 2100 ft
Overcast 2700 ft
Windchill 9 °F
Dew Point 19 °F
Humidity 83%
Rainfall 0.00 in
Snow Depth Not available.
UV 1 out of 12
Pollen .10 out of 12
Air Quality Not available.
Flu Activity Not available.
METAR KMIW 241953Z AUTO 29020G28KT 1SM -SN BR BKN021 OVC027 M05/M07 A2961 RMK AO2 PK WND 29033/1942 SNB36 SLP038 P0000 T10501072

More Conditions Fewer Conditions

10-Day Weather Forecast

Almanac

Astronomy

Nov. 24, 2014 Rise Set
Actual Time
Civil Twilight
Nautical Twilight
Astronomical Twilight
Moon
Length of Visible Light
Length of Day
Tomorrow will be .
, % of the Moon is Illuminated

Today's Extremes

State Highs State Lows

Community

WunderPhotos

Upload Photos

1,773,406 photos uploaded!

WunderBlogs® & News

Nearby

Air Quality

  Air Quality AQ Index Pollutant
Not available.

Snow Depth

Station Depth Elevation

Earthquake Activity

City Distance Mag. Time & Date
Minimum magnitude displayed is 2.5.

Coastal Water Temperatures

Place Temperature

Nearby Weather Stations